AAL877 KPDX-KSAN
Flight info
| Callsign | AAL877 |
|---|---|
| Flight time | N/A |
| Altitude | 35000 |
| Route | HRMNS6 HYJOE BORDY COLOM PASKE HUULK COMIX2 |
| Aircraft | A320/M-SDE3FGHIRWY/LB1 |
Departure
| Time | 2026-05-07 00:38 |
|---|---|
| Airport | Portland International Airport (KPDX) |
Arrival
| Time | N/A |
|---|---|
| Airport | San Diego International Airport (KSAN) |
| Time | Latitude | Longitude | Altitude | Speed | Heading |
|---|---|---|---|---|---|
| 2026-05-07 00:09 | 45.59182 | -122.59689 | 18 ft | 0 kts | 149° |
| 2026-05-07 00:27 | 45.59186 | -122.59692 | 18 ft | 2 kts | 149° |
| 2026-05-07 00:27 | 45.59203 | -122.59706 | 20 ft | 3 kts | 149° |
| 2026-05-07 00:27 | 45.59220 | -122.59721 | 18 ft | 3 kts | 140° |
| 2026-05-07 00:28 | 45.59233 | -122.59741 | 18 ft | 3 kts | 119° |
| 2026-05-07 00:28 | 45.59240 | -122.59759 | 18 ft | 1 kts | 119° |
| 2026-05-07 00:28 | 45.59247 | -122.59779 | 19 ft | 3 kts | 106° |
| 2026-05-07 00:28 | 45.59249 | -122.59804 | 20 ft | 3 kts | 72° |
| 2026-05-07 00:29 | 45.59242 | -122.59823 | 21 ft | 2 kts | 31° |
| 2026-05-07 00:29 | 45.59231 | -122.59832 | 19 ft | 3 kts | 30° |
| 2026-05-07 00:30 | 45.59224 | -122.59838 | 18 ft | 0 kts | 30° |
| 2026-05-07 00:31 | 45.59276 | -122.59795 | 17 ft | 17 kts | 30° |
| 2026-05-07 00:31 | 45.59361 | -122.59629 | 20 ft | 19 kts | 75° |
| 2026-05-07 00:32 | 45.59320 | -122.59485 | 19 ft | 13 kts | 119° |
| 2026-05-07 00:32 | 45.59286 | -122.59380 | 19 ft | 11 kts | 116° |
| 2026-05-07 00:32 | 45.59254 | -122.59295 | 19 ft | 9 kts | 118° |
| 2026-05-07 00:32 | 45.59220 | -122.59206 | 20 ft | 13 kts | 120° |
| 2026-05-07 00:33 | 45.59138 | -122.58991 | 21 ft | 34 kts | 118° |
| 2026-05-07 00:33 | 45.59016 | -122.58695 | 19 ft | 35 kts | 120° |
| 2026-05-07 00:33 | 45.58897 | -122.58387 | 21 ft | 36 kts | 117° |
| 2026-05-07 00:33 | 45.58777 | -122.58078 | 20 ft | 36 kts | 120° |
| 2026-05-07 00:34 | 45.58653 | -122.57766 | 19 ft | 36 kts | 119° |
| 2026-05-07 00:34 | 45.58530 | -122.57448 | 18 ft | 37 kts | 118° |
| 2026-05-07 00:34 | 45.58406 | -122.57126 | 19 ft | 37 kts | 119° |
| 2026-05-07 00:34 | 45.58293 | -122.56825 | 20 ft | 25 kts | 120° |
| 2026-05-07 00:35 | 45.58278 | -122.56745 | 20 ft | 0 kts | 79° |
| 2026-05-07 00:36 | 45.58315 | -122.56697 | 24 ft | 14 kts | 16° |
| 2026-05-07 00:36 | 45.58388 | -122.56759 | 23 ft | 14 kts | 298° |
| 2026-05-07 00:36 | 45.58415 | -122.56833 | 25 ft | 0 kts | 299° |
| 2026-05-07 00:37 | 45.58419 | -122.56842 | 24 ft | 12 kts | 298° |
| 2026-05-07 00:37 | 45.58592 | -122.57285 | 22 ft | 86 kts | 300° |
| 2026-05-07 00:37 | 45.58985 | -122.58283 | 26 ft | 142 kts | 298° |
| 2026-05-07 00:37 | 45.59517 | -122.59643 | 323 ft | 160 kts | 300° |
| 2026-05-07 00:38 | 45.60025 | -122.61048 | 1021 ft | 159 kts | 297° |
| 2026-05-07 00:38 | 45.60523 | -122.62460 | 1689 ft | 159 kts | 298° |
| 2026-05-07 00:38 | 45.61048 | -122.63926 | 2051 ft | 176 kts | 298° |
| 2026-05-07 00:38 | 45.61506 | -122.65672 | 2294 ft | 202 kts | 283° |
| 2026-05-07 00:39 | 45.61942 | -122.67692 | 2611 ft | 224 kts | 299° |
| 2026-05-07 00:39 | 45.62757 | -122.69723 | 3004 ft | 246 kts | 300° |
| 2026-05-07 00:39 | 45.63623 | -122.71852 | 3702 ft | 254 kts | 300° |
| 2026-05-07 00:39 | 45.64515 | -122.74050 | 4537 ft | 258 kts | 299° |
| 2026-05-07 00:40 | 45.65419 | -122.76278 | 5401 ft | 259 kts | 299° |
| 2026-05-07 00:40 | 45.66306 | -122.78525 | 6292 ft | 259 kts | 294° |
| 2026-05-07 00:40 | 45.66836 | -122.80978 | 7114 ft | 260 kts | 278° |
| 2026-05-07 00:40 | 45.66858 | -122.83568 | 7886 ft | 263 kts | 263° |
| 2026-05-07 00:41 | 45.66402 | -122.86123 | 8671 ft | 267 kts | 255° |
| 2026-05-07 00:41 | 45.65845 | -122.88665 | 9463 ft | 269 kts | 253° |
| 2026-05-07 00:41 | 45.64862 | -122.90964 | 10230 ft | 279 kts | 227° |
| 2026-05-07 00:41 | 45.63143 | -122.92342 | 10877 ft | 295 kts | 198° |
| 2026-05-07 00:42 | 45.60996 | -122.92396 | 11127 ft | 327 kts | 174° |
| 2026-05-07 00:42 | 45.58695 | -122.91663 | 11315 ft | 350 kts | 168° |
| 2026-05-07 00:42 | 45.56327 | -122.90640 | 11831 ft | 359 kts | 166° |
| 2026-05-07 00:42 | 45.53983 | -122.89325 | 12449 ft | 368 kts | 155° |
| 2026-05-07 00:43 | 45.51813 | -122.87329 | 13092 ft | 374 kts | 149° |
| 2026-05-07 00:43 | 45.49622 | -122.85291 | 13725 ft | 378 kts | 151° |
| 2026-05-07 00:43 | 45.47373 | -122.83329 | 14306 ft | 381 kts | 153° |
| 2026-05-07 00:43 | 45.45076 | -122.81397 | 14851 ft | 384 kts | 153° |
| 2026-05-07 00:44 | 45.42755 | -122.79468 | 15411 ft | 387 kts | 153° |
| 2026-05-07 00:44 | 45.40422 | -122.77524 | 15968 ft | 391 kts | 153° |